Christman Field Latest Observations
Date Time
MST
Temp
°F
RH
%
DewPt
°F
Wind
mph
Dir
°
Gust
mph
Dir
°
Press
in Hg
Solar
W/m^2
Prec
in
2019-06-15 20:05 61.8 61.4 48.4 1.2 106 2.7 89 24.881 0.2 0.00
2019-06-15 20:00 62.0 60.9 48.4 2.6 105 3.5 98 24.883 0.2 0.00
2019-06-15 19:55 62.3 60.1 48.3 5.0 83 7.1 98 24.882 0.4 0.00
2019-06-15 19:50 62.1 62.3 49.1 2.9 106 5.2 108 24.877 1.3 0.00
2019-06-15 19:45 61.6 62.3 48.6 2.1 125 3.2 125 24.876 6.1 0.00
2019-06-15 19:40 62.1 63.2 49.4 0.1 90 0.7 90 24.873 10.5 0.00
2019-06-15 19:35 62.6 61.5 49.2 0.0 90 0.0 78 24.870 13.1 0.00
2019-06-15 19:30 62.4 59.7 48.2 1.6 78 2.6 78 24.868 18.1 0.00
2019-06-15 19:25 63.2 60.0 49.1 0.2 245 0.8 245 24.868 23.7 0.00
2019-06-15 19:20 63.4 57.4 48.1 1.9 245 2.8 245 24.869 27.2 0.00
2019-06-15 19:15 63.6 57.5 48.4 1.8 225 3.3 241 24.867 36.7 0.00
2019-06-15 19:10 64.0 58.4 49.1 1.6 290 4.0 312 24.864 49.8 0.00
2019-06-15 19:05 64.4 57.9 49.2 5.2 329 7.3 341 24.862 86.4 0.00
2019-06-15 19:00 64.4 54.3 47.6 8.7 336 11.4 341 24.861 84.3 0.00
2019-06-15 18:55 65.1 54.3 48.2 10.9 332 13.7 344 24.865 87.4 0.00
2019-06-15 18:50 65.0 52.1 47.0 11.0 313 14.0 296 24.868 90.2 0.00
2019-06-15 18:45 64.8 52.2 46.9 12.7 286 16.1 312 24.867 54.5 0.00
2019-06-15 18:40 64.9 53.8 47.8 8.3 310 12.3 306 24.865 54.9 0.00
2019-06-15 18:35 65.3 54.6 48.5 8.8 318 12.3 351 24.861 57.1 0.00
2019-06-15 18:30 65.7 52.4 47.8 9.4 344 13.1 352 24.858 80.1 0.00
2019-06-15 18:25 65.9 51.3 47.5 13.4 351 18.8 3 24.858 79.1 0.00
2019-06-15 18:20 66.4 51.4 47.9 9.9 0 13.3 15 24.856 64.6 0.00
2019-06-15 18:15 67.2 48.8 47.3 14.6 348 21.2 351 24.854 64.7 0.00
2019-06-15 18:10 68.0 46.2 46.6 15.1 7 21.1 21 24.852 71.1 0.00
2019-06-15 18:05 68.5 45.3 46.5 15.6 26 22.7 16 24.852 73.5 0.00
2019-06-15 18:00 69.7 43.9 46.8 19.6 25 26.5 3 24.850 78.7 0.00
2019-06-15 17:55 71.8 44.5 49.1 12.9 16 20.8 354 24.845 72.5 0.00
2019-06-15 17:50 73.3 39.9 47.5 15.4 32 21.1 30 24.839 89.3 0.00
2019-06-15 17:45 74.8 36.5 46.5 8.4 30 10.9 49 24.834 139.4 0.00
2019-06-15 17:40 75.4 33.5 44.7 6.4 55 8.4 42 24.829 214.0 0.00
CIRA

Cooperative Institute for Research in the Atmosphere

Education and Outreach


Education and Outreach at CIRA is designed to support the research performed at CIRA, improve the visibility of CIRA research and researchers to the University, within NOAA, and to the community, and to inspire the next generation of research scientists. To support these goals, programs administered by the Education and Outreach (E&O) program are organized along four tiers of involvement, all of which are targeted to a specific audience, and are directly related to the research performed at CIRA. Wherever possible, outreach activities are designed to facilitate evaluation and assessment of the activity to obtain quantitative feedback on the success of the activity. The CIRA E&O program is led by a committee composed of researchers and other CIRA personnel who have training and an interest in science education and outreach.

 

As mentioned previously, outreach activities at CIRA are organized through four tiers of involvement. The first, most basic, tiered activity encompasses public relations, media releases, and community involvement – increasing CIRA’s visibility in the public sphere to all audiences. The second tier of activities represent ‘pilot programs’ developed in-house at CIRA – short-term projects targeted at a specific audience with a focus on relevance to CIRA research or capabilities. Tier 2 projects are developed using in-house funding from CIRA with the intent of using preliminary results from the project to compete for and obtain external funding sources.

 

The third tier of projects at CIRA represent ongoing outreach projects that are externally supported, either as part of a funded research project or as a standalone education or outreach project, including Tier 2 projects that successfully competed for external funds. A fourth tier for CIRA education and outreach projects envisions leveraging unique CIRA capabilities to provide national-caliber education opportunities: providing complete education and public outreach capabilities for an earth science mission, for example, or hosting a nationally-known training and professional development program for emergency managers.

 

Development of the tiered system of outreach and education at CIRA was implemented in mid-2011, incorporating existing Tier 1 and Tier 2 activities; continued development of CIRA’s Tier 2 and Tier 3 activities is underway. Outreach and Education activities at CIRA operate under the auspices of the Education and Outreach committee who represent areas of research at CIRA and act as principal points-of-contact or principal investigators for CIRA activities. The committee is chaired by the education and outreach coordinator for CIRA, who operates with the oversight of the Directors of CIRA, and who reports to the CIRA Board and Fellows as required. The Education and Outreach Coordinator also acts on CIRA’s behalf for education and outreach activities between Cooperative Institutes and within NOAA at large.